Time;durP1;ratioP1;P1;durP2;ratioP2;P2;SDS_P1;SDS_P2;PMS_P1;PMS_P2;Temp;Humidity;BMP_temperature;BMP_pressure;BME280_temperature;BME280_humidity;BME280_pressure;Samples;Min_cycle;Max_cycle;Signal;HPM_P1;HPM_P2
2022/09/28 04:03:45;;;;;;;0.60;0.60;;;10.60;99.90;;;;;;5994027;22;20277;-68
2022/09/28 04:06:11;;;;;;;0.88;0.88;;;10.50;99.90;;;;;;5018275;28;20589;-65
2022/09/28 04:08:37;;;;;;;0.70;0.70;;;10.40;99.90;;;;;;5036329;28;20239;-69
2022/09/28 04:11:03;;;;;;;1.60;1.03;;;10.30;99.90;;;;;;5036249;28;20479;-68
2022/09/28 04:13:29;;;;;;;0.60;0.60;;;10.30;99.90;;;;;;5032654;28;20552;-66
2022/09/28 04:15:57;;;;;;;0.60;0.60;;;10.20;99.90;;;;;;5015643;28;20424;-67
2022/09/28 04:18:23;;;;;;;0.50;0.50;;;10.20;99.90;;;;;;5016169;28;20167;-69
2022/09/28 04:21:07;;;;;;;1.30;0.80;;;10.20;99.90;;;;;;5016065;28;20179;-66
2022/09/28 04:23:34;;;;;;;0.93;0.93;;;10.10;99.90;;;;;;4998115;28;20559;-68
2022/09/28 04:26:01;;;;;;;0.57;0.57;;;10.00;99.90;;;;;;5016050;28;20229;-67
2022/09/28 04:31:16;;;;;;;0.70;0.70;;;10.00;99.90;;;;;;5016002;28;20205;-67
2022/09/28 04:33:42;;;;;;;0.77;0.60;;;10.00;99.90;;;;;;5014268;28;20191;-66
2022/09/28 04:36:09;;;;;;;0.70;0.70;;;10.00;99.90;;;;;;5015987;28;20182;-67
2022/09/28 04:38:35;;;;;;;2.25;1.02;;;10.00;99.90;;;;;;5015899;28;20179;-67
2022/09/28 04:41:01;;;;;;;0.50;0.50;;;10.00;99.90;;;;;;5016108;28;20552;-66
2022/09/28 04:43:27;;;;;;;0.77;0.50;;;9.90;99.90;;;;;;5015324;28;20312;-67
2022/09/28 04:46:06;;;;;;;1.67;0.90;;;9.90;99.90;;;;;;5015720;28;20783;-66
2022/09/28 04:48:32;;;;;;;0.75;0.75;;;9.90;99.90;;;;;;5015855;28;20525;-66
2022/09/28 04:50:59;;;;;;;2.23;0.50;;;9.90;99.90;;;;;;5015734;28;20195;-68
2022/09/28 04:53:26;;;;;;;0.73;0.60;;;9.90;99.90;;;;;;5015141;28;20189;-67
2022/09/28 04:56:12;;;;;;;0.98;0.95;;;9.90;99.90;;;;;;4997775;28;20691;-68
2022/09/28 04:58:38;;;;;;;1.05;0.50;;;9.90;99.90;;;;;;5015704;28;20617;-67
2022/09/28 05:01:07;;;;;;;0.50;0.50;;;9.90;99.90;;;;;;5014841;28;20171;-68
2022/09/28 05:03:33;;;;;;;1.05;0.77;;;9.90;99.90;;;;;;4991296;28;20569;-67
2022/09/28 05:05:59;;;;;;;0.70;0.70;;;9.90;99.90;;;;;;4995532;28;20188;-68
2022/09/28 05:08:25;;;;;;;0.90;0.80;;;9.90;99.90;;;;;;4995659;28;20250;-68
2022/09/28 05:10:58;;;;;;;1.88;0.70;;;9.90;99.90;;;;;;5000855;28;20201;-68
2022/09/28 05:13:24;;;;;;;0.60;0.60;;;9.90;99.90;;;;;;5014601;28;20171;-68
2022/09/28 05:15:53;;;;;;;6.93;4.53;;;9.90;99.90;;;;;;4996106;28;20218;-69
2022/09/28 05:18:19;;;;;;;2.55;2.35;;;9.90;99.90;;;;;;5012231;28;20484;-69
2022/09/28 05:20:45;;;;;;;3.13;1.58;;;9.90;99.90;;;;;;5003306;28;20191;-69
2022/09/28 05:23:11;;;;;;;0.83;0.80;;;9.90;99.90;;;;;;5004177;28;20177;-68
2022/09/28 05:25:40;;;;;;;0.70;0.70;;;9.90;99.90;;;;;;5015080;28;20558;-66
2022/09/28 05:28:07;;;;;;;2.78;0.85;;;9.80;99.90;;;;;;5014680;28;20236;-67
2022/09/28 05:30:34;;;;;;;0.80;0.55;;;9.80;99.90;;;;;;4996551;28;20178;-67
2022/09/28 05:33:00;;;;;;;0.70;0.70;;;9.80;99.90;;;;;;5014407;28;20186;-67
2022/09/28 05:35:26;;;;;;;0.70;0.70;;;9.80;99.90;;;;;;5014726;28;20519;-65
2022/09/28 05:37:51;;;;;;;1.10;0.88;;;9.80;99.90;;;;;;5002539;28;20583;-67
2022/09/28 05:40:17;;;;;;;0.77;0.60;;;9.80;99.90;;;;;;5005502;28;20262;-68
2022/09/28 05:42:43;;;;;;;1.38;0.82;;;9.80;99.90;;;;;;5014512;28;20175;-69
2022/09/28 05:45:09;;;;;;;0.80;0.80;;;9.80;99.90;;;;;;4999089;28;20702;-66
2022/09/28 05:47:39;;;;;;;0.50;0.50;;;9.80;99.90;;;;;;5013513;28;20232;-67
2022/09/28 05:50:07;;;;;;;0.68;0.52;;;9.80;99.90;;;;;;5013603;28;20178;-68
2022/09/28 05:52:34;;;;;;;1.25;0.85;;;9.80;99.90;;;;;;5013409;28;20318;-68
2022/09/28 05:55:01;;;;;;;0.90;0.50;;;9.80;99.90;;;;;;5014142;28;20223;-67
2022/09/28 05:57:26;;;;;;;0.90;0.90;;;9.80;99.90;;;;;;5013861;28;20229;-67
2022/09/28 05:59:52;;;;;;;0.97;0.87;;;9.80;99.90;;;;;;5013969;28;20579;-68
2022/09/28 06:02:17;;;;;;;0.67;0.67;;;9.80;99.90;;;;;;5013968;28;20202;-69
2022/09/28 06:04:43;;;;;;;2.07;1.13;;;9.80;99.90;;;;;;4995971;28;20676;-68
2022/09/28 06:07:09;;;;;;;1.27;0.90;;;9.80;99.90;;;;;;5013955;28;20175;-68
2022/09/28 06:09:34;;;;;;;1.03;1.00;;;9.80;99.90;;;;;;5014163;28;20170;-67
2022/09/28 06:12:00;;;;;;;2.70;0.57;;;9.80;99.90;;;;;;4996161;28;20612;-68
2022/09/28 06:14:25;;;;;;;0.80;0.80;;;9.80;99.90;;;;;;5005360;28;20222;-66
2022/09/28 06:16:51;;;;;;;0.73;0.73;;;9.80;99.90;;;;;;4999503;28;20183;-65
2022/09/28 06:19:17;;;;;;;1.23;1.10;;;9.80;99.90;;;;;;4994288;28;20179;-67
2022/09/28 06:21:43;;;;;;;0.90;0.90;;;9.80;99.90;;;;;;4994140;28;20254;-67
2022/09/28 06:24:09;;;;;;;1.83;1.58;;;9.90;99.90;;;;;;5001601;28;20440;-66
2022/09/28 06:26:34;;;;;;;2.13;1.93;;;9.80;99.90;;;;;;5010314;28;20258;-68
2022/09/28 06:29:00;;;;;;;1.47;1.37;;;9.90;99.90;;;;;;4994310;28;20230;-68
2022/09/28 06:31:28;;;;;;;2.10;1.30;;;9.90;99.90;;;;;;4994145;28;20195;-67
2022/09/28 06:33:54;;;;;;;1.08;1.08;;;9.90;99.90;;;;;;4993688;28;20191;-67
2022/09/28 06:36:20;;;;;;;1.33;1.23;;;10.00;99.90;;;;;;4994494;28;20231;-68
2022/09/28 06:38:46;;;;;;;1.00;1.00;;;9.90;99.90;;;;;;4993821;28;20168;-68
2022/09/28 06:41:12;;;;;;;1.60;0.90;;;10.00;99.90;;;;;;4994242;28;20176;-67
2022/09/28 06:43:38;;;;;;;1.30;1.20;;;10.00;99.90;;;;;;4993458;28;20430;-67
2022/09/28 06:46:05;;;;;;;0.77;0.77;;;10.00;99.90;;;;;;4993898;28;20187;-68
2022/09/28 06:48:32;;;;;;;1.63;1.52;;;10.10;99.90;;;;;;4993816;28;20217;-66
2022/09/28 06:50:59;;;;;;;1.30;1.20;;;10.10;99.90;;;;;;4993819;28;20191;-67
2022/09/28 06:53:27;;;;;;;1.25;1.25;;;10.10;99.90;;;;;;4993456;28;20172;-67
2022/09/28 06:55:53;;;;;;;3.30;2.30;;;10.10;99.90;;;;;;4993720;28;20171;-68
2022/09/28 06:58:20;;;;;;;1.38;1.33;;;10.10;99.90;;;;;;4993834;28;20561;-68
2022/09/28 07:00:47;;;;;;;1.10;1.10;;;10.10;99.90;;;;;;4993895;28;20248;-68
2022/09/28 07:03:17;;;;;;;2.65;2.50;;;10.20;99.90;;;;;;4993349;28;20250;-68
2022/09/28 07:05:44;;;;;;;1.30;1.20;;;10.20;99.90;;;;;;4976187;28;20195;-67
2022/09/28 07:08:10;;;;;;;0.90;0.90;;;10.20;99.90;;;;;;4993800;28;20172;-68
2022/09/28 07:10:46;;;;;;;1.67;1.57;;;10.20;99.90;;;;;;4995698;28;20314;-67
2022/09/28 07:13:13;;;;;;;2.35;1.73;;;10.20;99.90;;;;;;4995761;28;20427;-67
2022/09/28 07:15:39;;;;;;;3.20;1.63;;;10.30;99.90;;;;;;5005482;28;20186;-68
2022/09/28 07:18:06;;;;;;;1.70;1.60;;;10.30;99.90;;;;;;5003367;28;20176;-67
2022/09/28 07:20:36;;;;;;;1.50;1.42;;;10.40;99.90;;;;;;4980252;28;20913;-66
2022/09/28 07:23:04;;;;;;;1.00;1.00;;;10.40;99.90;;;;;;5005406;28;20236;-66
2022/09/28 07:25:31;;;;;;;1.90;1.75;;;10.50;99.90;;;;;;5006515;28;20634;-66
2022/09/28 07:28:02;;;;;;;5.68;4.32;;;10.50;99.90;;;;;;5013402;28;20175;-65
2022/09/28 07:30:32;;;;;;;4.18;2.47;;;10.60;99.90;;;;;;4999745;28;20541;-67
2022/09/28 07:33:01;;;;;;;4.67;1.70;;;10.70;99.90;;;;;;5004857;28;20181;-67
2022/09/28 07:35:27;;;;;;;2.47;1.80;;;10.80;99.90;;;;;;5001947;28;20445;-67
2022/09/28 07:38:05;;;;;;;2.85;1.50;;;10.90;99.90;;;;;;4998157;28;20180;-67
2022/09/28 07:43:19;;;;;;;3.63;1.83;;;11.10;99.90;;;;;;4996792;28;20406;-66
2022/09/28 07:45:49;;;;;;;1.50;1.40;;;11.20;99.90;;;;;;4991793;28;20487;-66
2022/09/28 07:48:16;;;;;;;1.43;1.33;;;11.30;99.90;;;;;;5003237;28;20418;-66
2022/09/28 07:50:46;;;;;;;2.70;1.67;;;11.40;99.90;;;;;;5003541;28;20415;-67
2022/09/28 07:53:12;;;;;;;1.13;1.13;;;11.30;99.90;;;;;;5015962;28;20474;-68
2022/09/28 07:55:37;;;;;;;1.50;1.40;;;11.40;99.90;;;;;;5016732;28;20412;-67
2022/09/28 07:58:03;;;;;;;1.70;1.60;;;11.40;99.90;;;;;;5013324;28;20178;-67
2022/09/28 08:00:31;;;;;;;6.30;2.20;;;11.40;99.90;;;;;;4997032;28;20177;-69
2022/09/28 08:03:00;;;;;;;2.17;1.40;;;11.50;99.90;;;;;;5012381;28;20621;-67
2022/09/28 08:05:31;;;;;;;2.90;1.43;;;11.60;99.90;;;;;;5002582;28;20453;-67
2022/09/28 08:07:58;;;;;;;3.30;1.47;;;11.70;99.90;;;;;;4996827;28;20409;-67
2022/09/28 08:10:27;;;;;;;1.73;1.60;;;11.90;99.90;;;;;;5010373;28;20520;-68
2022/09/28 08:12:55;;;;;;;1.87;1.67;;;12.10;99.90;;;;;;5015832;28;20977;-69
2022/09/28 08:15:21;;;;;;;1.27;1.27;;;12.40;99.90;;;;;;5003391;28;20800;-69
2022/09/28 08:17:48;;;;;;;1.50;1.20;;;12.60;99.90;;;;;;4996506;28;20409;-69
2022/09/28 08:23:06;;;;;;;2.63;1.50;;;12.80;99.90;;;;;;5001314;28;20422;-67
2022/09/28 08:25:31;;;;;;;1.37;1.10;;;12.90;99.90;;;;;;4996484;28;20899;-70
2022/09/28 08:27:57;;;;;;;2.90;1.90;;;13.10;99.90;;;;;;4996323;28;20429;-69
2022/09/28 08:30:23;;;;;;;3.20;1.50;;;13.10;99.90;;;;;;4996038;28;20407;-71
2022/09/28 08:32:49;;;;;;;1.17;1.17;;;13.30;99.90;;;;;;4995777;28;20462;-71
2022/09/28 08:35:14;;;;;;;2.50;1.40;;;13.50;99.90;;;;;;4996416;28;20550;-66
2022/09/28 08:37:40;;;;;;;2.00;1.27;;;13.70;99.90;;;;;;4996235;28;20172;-67
2022/09/28 08:40:17;;;;;;;1.70;1.60;;;13.90;99.90;;;;;;4996141;28;20511;-66
2022/09/28 08:42:44;;;;;;;1.70;1.50;;;14.10;99.90;;;;;;4996212;28;20255;-67
2022/09/28 08:45:16;;;;;;;5.83;1.47;;;14.50;99.90;;;;;;4995777;28;20793;-65
2022/09/28 08:50:55;;;;;;;1.70;1.60;;;15.20;99.90;;;;;;4996002;28;20393;-67
2022/09/28 08:53:33;;;;;;;2.10;1.17;;;15.30;99.90;;;;;;4995226;28;20756;-68
2022/09/28 08:56:05;;;;;;;1.17;1.07;;;15.30;99.90;;;;;;4995979;28;20829;-67
2022/09/28 08:58:39;;;;;;;1.00;1.00;;;15.30;99.90;;;;;;4995806;28;20780;-67
2022/09/28 09:01:15;;;;;;;2.63;2.27;;;15.20;99.90;;;;;;4995975;28;20864;-69
2022/09/28 09:03:44;;;;;;;1.40;1.30;;;15.40;99.90;;;;;;4995225;28;20517;-66
2022/09/28 09:06:21;;;;;;;1.40;1.30;;;15.80;99.90;;;;;;4995512;28;20431;-67
2022/09/28 09:09:06;;;;;;;1.90;1.47;;;16.30;99.90;;;;;;4995566;28;20792;-68
2022/09/28 09:12:07;;;;;;;1.30;1.20;;;16.60;99.90;;;;;;4995635;28;20454;-65
2022/09/28 09:14:52;;;;;;;1.50;1.40;;;16.70;99.90;;;;;;4994943;28;20896;-67
2022/09/28 09:17:25;;;;;;;1.20;1.10;;;16.70;99.90;;;;;;4995410;28;20398;-68
2022/09/28 09:20:02;;;;;;;1.20;1.20;;;16.50;99.90;;;;;;4994223;28;20414;-68
2022/09/28 09:22:44;;;;;;;1.10;1.10;;;16.40;99.90;;;;;;4994951;28;20410;-67
2022/09/28 09:25:32;;;;;;;1.37;1.20;;;16.30;99.90;;;;;;4995209;28;20426;-66
2022/09/28 09:28:01;;;;;;;1.60;1.47;;;16.30;99.90;;;;;;4995508;28;20420;-65
2022/09/28 09:30:31;;;;;;;2.37;1.63;;;16.20;99.90;;;;;;4995274;28;20399;-64
2022/09/28 09:33:31;;;;;;;1.10;1.10;;;16.20;99.90;;;;;;4977636;28;21012;-64
2022/09/28 09:36:09;;;;;;;1.50;1.40;;;16.30;99.90;;;;;;4994853;28;20417;-65
2022/09/28 09:39:07;;;;;;;1.37;1.20;;;16.40;99.90;;;;;;4995226;28;20805;-65
2022/09/28 09:41:51;;;;;;;1.50;1.40;;;16.40;99.90;;;;;;4977211;28;20422;-64
2022/09/28 09:44:16;;;;;;;1.10;1.10;;;16.20;99.90;;;;;;4994396;28;20936;-65
2022/09/28 09:47:06;;;;;;;3.60;1.50;;;16.10;99.90;;;;;;4995119;28;20418;-64
2022/09/28 09:50:00;;;;;;;1.27;1.03;;;16.10;99.90;;;;;;4994932;28;20238;-65
2022/09/28 09:52:37;;;;;;;1.10;1.10;;;16.20;99.90;;;;;;4994463;28;20466;-65
2022/09/28 09:55:13;;;;;;;1.33;1.20;;;16.30;99.90;;;;;;4994636;28;20437;-62
2022/09/28 09:57:50;;;;;;;3.60;1.50;;;16.20;99.90;;;;;;4994649;28;20376;-64
2022/09/28 10:00:16;;;;;;;0.93;0.90;;;16.10;99.90;;;;;;4994720;28;20410;-63
2022/09/28 10:02:45;;;;;;;1.80;1.17;;;16.00;99.90;;;;;;4994209;28;21277;-63
2022/09/28 10:05:10;;;;;;;3.27;1.47;;;16.00;99.90;;;;;;4994294;28;20489;-63
2022/09/28 10:07:45;;;;;;;1.70;1.20;;;15.80;99.90;;;;;;4994666;28;20797;-64
2022/09/28 10:10:42;;;;;;;1.50;1.40;;;15.70;99.90;;;;;;4994629;28;20255;-63
2022/09/28 10:13:08;;;;;;;2.33;1.40;;;15.60;99.90;;;;;;4983340;28;20462;-64
2022/09/28 10:15:35;;;;;;;3.97;1.70;;;15.50;99.90;;;;;;4994541;28;20464;-64
2022/09/28 10:18:05;;;;;;;1.80;1.70;;;15.50;99.90;;;;;;4976836;28;20957;-64
2022/09/28 10:20:34;;;;;;;3.03;1.30;;;15.50;99.90;;;;;;4994254;28;20408;-65
2022/09/28 10:23:02;;;;;;;1.43;1.33;;;15.40;99.90;;;;;;4993929;28;20899;-64
2022/09/28 10:25:32;;;;;;;2.10;1.40;;;15.30;99.90;;;;;;4994354;28;20507;-64
2022/09/28 10:27:59;;;;;;;1.07;1.07;;;15.30;99.90;;;;;;4994478;28;20452;-65
2022/09/28 10:30:25;;;;;;;1.30;1.20;;;15.30;99.90;;;;;;4994200;28;20405;-66
2022/09/28 10:32:57;;;;;;;2.47;1.50;;;15.30;99.90;;;;;;4993881;28;20467;-65
2022/09/28 10:35:29;;;;;;;5.20;1.97;;;15.40;99.90;;;;;;4994235;28;20433;-65
2022/09/28 10:37:59;;;;;;;2.20;1.50;;;15.50;99.90;;;;;;4994189;28;20406;-66
2022/09/28 10:40:36;;;;;;;1.33;1.30;;;15.60;99.90;;;;;;4994214;28;20479;-64
2022/09/28 10:43:05;;;;;;;2.47;2.27;;;15.50;99.90;;;;;;4993650;28;20409;-67
2022/09/28 10:45:35;;;;;;;1.50;1.40;;;15.60;99.90;;;;;;4993887;28;20397;-66
2022/09/28 10:48:05;;;;;;;1.87;1.23;;;15.50;99.90;;;;;;4993960;28;20930;-67
2022/09/28 10:50:31;;;;;;;1.57;1.47;;;15.50;99.90;;;;;;4993886;28;20748;-65
2022/09/28 10:53:19;;;;;;;2.00;1.90;;;15.60;99.90;;;;;;4993986;28;20456;-67
2022/09/28 10:55:58;;;;;;;5.03;1.30;;;15.70;99.90;;;;;;5000569;28;20458;-66
2022/09/28 10:58:26;;;;;;;1.73;1.63;;;15.80;99.90;;;;;;5000623;28;20464;-66
2022/09/28 11:00:58;;;;;;;1.60;1.30;;;16.00;99.90;;;;;;5000437;28;20411;-68
2022/09/28 11:03:26;;;;;;;1.67;1.40;;;16.10;99.90;;;;;;4999861;28;20904;-66
2022/09/28 11:06:05;;;;;;;1.67;1.53;;;16.20;99.80;;;;;;5000373;28;20469;-68
2022/09/28 11:08:36;;;;;;;1.60;1.03;;;16.10;99.40;;;;;;5000843;28;20433;-66
2022/09/28 11:11:10;;;;;;;1.87;1.20;;;16.10;99.00;;;;;;5009513;28;20457;-67
2022/09/28 11:14:00;;;;;;;0.93;0.93;;;16.00;98.80;;;;;;5013411;28;20418;-65
2022/09/28 11:16:28;;;;;;;1.10;1.10;;;16.00;98.90;;;;;;5012327;28;20823;-65
2022/09/28 11:18:55;;;;;;;1.20;1.20;;;16.00;98.90;;;;;;5019816;28;20411;-66
2022/09/28 11:21:26;;;;;;;1.40;1.40;;;16.00;98.40;;;;;;5019723;28;20412;-66
2022/09/28 11:24:23;;;;;;;1.27;1.17;;;15.80;98.50;;;;;;5019352;28;20937;-66
2022/09/28 11:26:51;;;;;;;1.70;1.20;;;15.80;98.90;;;;;;5007878;28;20483;-67
2022/09/28 11:29:40;;;;;;;2.57;1.80;;;15.80;99.00;;;;;;5017026;28;20412;-67
2022/09/28 11:32:08;;;;;;;1.90;1.30;;;15.80;99.10;;;;;;4994463;28;20470;-68
2022/09/28 11:34:43;;;;;;;1.77;1.67;;;15.70;99.90;;;;;;5016162;28;20561;-68
2022/09/28 11:37:15;;;;;;;1.20;1.10;;;15.70;99.90;;;;;;5006994;28;20409;-68
2022/09/28 11:39:46;;;;;;;1.40;1.30;;;15.80;99.90;;;;;;5010700;28;20414;-65
2022/09/28 11:43:03;;;;;;;1.50;0.97;;;15.90;99.20;;;;;;5009269;28;20405;-69
2022/09/28 11:45:50;;;;;;;1.37;1.23;;;16.00;99.50;;;;;;4976058;28;20816;-67
2022/09/28 11:48:27;;;;;;;1.57;1.07;;;16.00;99.50;;;;;;5015417;28;20747;-65
2022/09/28 11:51:08;;;;;;;1.53;1.23;;;16.10;99.00;;;;;;5016636;28;20426;-67
2022/09/28 11:53:46;;;;;;;2.00;1.13;;;16.10;99.30;;;;;;5019306;28;20511;-66
2022/09/28 11:56:35;;;;;;;1.70;1.60;;;16.30;99.80;;;;;;5019415;28;20401;-66
2022/09/28 11:59:20;;;;;;;2.00;1.00;;;16.30;99.20;;;;;;5019367;28;20504;-66
2022/09/28 12:01:52;;;;;;;1.50;1.40;;;16.30;99.70;;;;;;5019402;28;20452;-65
2022/09/28 12:04:28;;;;;;;1.43;1.20;;;16.30;99.70;;;;;;5018950;28;20466;-64
2022/09/28 12:07:05;;;;;;;1.77;1.40;;;16.10;99.90;;;;;;5015767;28;20409;-64
2022/09/28 12:09:40;;;;;;;2.73;1.10;;;16.10;99.90;;;;;;5016374;28;20408;-67
2022/09/28 12:12:21;;;;;;;3.03;1.23;;;16.00;99.10;;;;;;5016451;28;20993;-68
2022/09/28 12:14:49;;;;;;;3.30;1.70;;;16.10;98.60;;;;;;5015685;28;20458;-68
2022/09/28 12:17:28;;;;;;;1.67;1.57;;;16.20;98.10;;;;;;5016063;28;20462;-68
2022/09/28 12:20:05;;;;;;;3.00;1.87;;;16.20;97.80;;;;;;5016112;28;20400;-69
2022/09/28 12:22:37;;;;;;;1.47;1.37;;;16.20;97.60;;;;;;5015857;28;20390;-69
2022/09/28 12:25:10;;;;;;;1.33;1.23;;;16.10;97.30;;;;;;5016087;28;20424;-67
2022/09/28 12:28:15;;;;;;;1.30;1.20;;;16.10;97.30;;;;;;5016204;28;20775;-68
2022/09/28 12:30:44;;;;;;;2.80;1.10;;;16.10;97.00;;;;;;4955403;29;20439;-68
2022/09/28 12:33:12;;;;;;;1.10;1.10;;;16.10;96.70;;;;;;4986408;28;20528;-67
2022/09/28 12:35:52;;;;;;;1.10;1.00;;;16.20;96.50;;;;;;4996206;28;20409;-68
2022/09/28 12:38:44;;;;;;;1.33;1.00;;;16.20;96.80;;;;;;4996614;28;20411;-66
2022/09/28 12:41:42;;;;;;;0.77;0.77;;;16.20;96.20;;;;;;4996275;28;20414;-67
2022/09/28 12:44:08;;;;;;;0.90;0.90;;;16.20;96.40;;;;;;4910031;28;20625;-67
2022/09/28 12:46:45;;;;;;;1.40;1.30;;;16.10;96.30;;;;;;4995853;28;20800;-66
2022/09/28 12:49:44;;;;;;;2.27;1.47;;;16.10;96.10;;;;;;4995848;28;20259;-67
2022/09/28 12:52:27;;;;;;;0.87;0.87;;;16.10;95.90;;;;;;4995886;28;20519;-66
2022/09/28 12:55:11;;;;;;;3.50;1.20;;;16.10;97.00;;;;;;4995663;28;20512;-67
2022/09/28 12:57:46;;;;;;;1.20;1.00;;;16.20;96.40;;;;;;4996088;28;20492;-68
2022/09/28 13:00:21;;;;;;;1.00;1.00;;;16.20;95.70;;;;;;4995499;28;20407;-66
2022/09/28 13:02:59;;;;;;;1.73;0.80;;;16.20;96.10;;;;;;4995492;28;20422;-66
2022/09/28 13:05:37;;;;;;;2.57;2.37;;;16.20;96.70;;;;;;5004665;28;20455;-65
2022/09/28 13:08:18;;;;;;;1.03;1.00;;;16.20;96.00;;;;;;5034605;28;20444;-65
2022/09/28 13:11:21;;;;;;;1.47;0.90;;;16.20;95.90;;;;;;5032493;28;20445;-67
2022/09/28 13:14:05;;;;;;;1.13;0.83;;;16.20;95.40;;;;;;5032360;28;20922;-66
2022/09/28 13:16:55;;;;;;;1.20;1.20;;;16.10;94.80;;;;;;5032178;28;20416;-67
2022/09/28 13:19:48;;;;;;;3.87;1.07;;;16.10;95.20;;;;;;5032829;28;20888;-67
2022/09/28 13:22:52;;;;;;;2.37;1.00;;;16.00;95.40;;;;;;5032798;28;20656;-66
2022/09/28 13:25:20;;;;;;;1.07;1.07;;;16.10;95.80;;;;;;5033937;28;20574;-65
2022/09/28 13:28:04;;;;;;;2.43;1.23;;;16.10;95.90;;;;;;5016070;28;20428;-69
2022/09/28 13:30:33;;;;;;;1.50;1.40;;;16.10;96.40;;;;;;4996803;28;20420;-67
2022/09/28 13:33:02;;;;;;;1.37;1.27;;;16.20;96.30;;;;;;5013614;28;20460;-65
2022/09/28 13:35:28;;;;;;;1.73;1.40;;;16.30;95.40;;;;;;5014381;28;20449;-65
2022/09/28 13:38:19;;;;;;;1.60;1.40;;;16.30;94.70;;;;;;5014663;28;20474;-65
2022/09/28 13:41:03;;;;;;;1.37;1.10;;;16.30;94.30;;;;;;4998250;28;20420;-67
2022/09/28 13:44:06;;;;;;;1.17;1.13;;;16.20;94.20;;;;;;5011509;28;20441;-66
2022/09/28 13:46:37;;;;;;;1.40;0.90;;;16.20;94.20;;;;;;5014596;28;20409;-66
2022/09/28 13:49:20;;;;;;;0.87;0.87;;;16.00;94.70;;;;;;5015119;28;20409;-67
2022/09/28 13:52:02;;;;;;;1.57;1.27;;;15.90;95.30;;;;;;5014236;28;20813;-66
2022/09/28 13:55:11;;;;;;;1.40;1.10;;;15.80;95.30;;;;;;5013975;28;20474;-67
2022/09/28 13:57:47;;;;;;;3.37;1.00;;;15.70;96.30;;;;;;5013392;28;20486;-68
2022/09/28 14:00:20;;;;;;;1.67;1.10;;;15.70;95.30;;;;;;5014359;28;20376;-65
2022/09/28 14:03:10;;;;;;;0.90;0.80;;;15.60;95.40;;;;;;4996355;28;20430;-65
2022/09/28 14:05:47;;;;;;;0.80;0.80;;;15.50;95.40;;;;;;5010672;28;20474;-67
2022/09/28 14:08:32;;;;;;;0.67;0.67;;;15.50;95.40;;;;;;5012977;28;20482;-64
2022/09/28 14:11:34;;;;;;;0.90;0.90;;;15.50;95.50;;;;;;5013847;28;20397;-66
2022/09/28 14:14:04;;;;;;;1.23;1.20;;;15.50;95.30;;;;;;4934068;29;20445;-65
2022/09/28 14:16:32;;;;;;;1.80;1.63;;;15.50;95.40;;;;;;4980622;28;20450;-66
2022/09/28 14:19:03;;;;;;;1.57;1.30;;;15.50;96.40;;;;;;4991804;28;20454;-66
2022/09/28 14:21:54;;;;;;;1.47;1.37;;;15.50;96.80;;;;;;5013646;28;20431;-67
2022/09/28 14:24:49;;;;;;;1.37;1.27;;;15.50;95.80;;;;;;4995745;28;20440;-67
2022/09/28 14:27:52;;;;;;;0.90;0.90;;;15.40;94.90;;;;;;4995499;28;20432;-67
2022/09/28 14:30:22;;;;;;;0.70;0.70;;;15.30;94.60;;;;;;5012592;28;20837;-66
2022/09/28 14:32:57;;;;;;;0.90;0.90;;;15.30;94.60;;;;;;5013469;28;20469;-65
2022/09/28 14:35:44;;;;;;;0.93;0.90;;;15.30;94.90;;;;;;5013620;28;20858;-66
2022/09/28 14:41:11;;;;;;;1.33;0.90;;;15.20;95.30;;;;;;5013774;28;20429;-66
2022/09/28 14:43:42;;;;;;;1.30;1.20;;;15.20;94.50;;;;;;5012923;28;20440;-66
2022/09/28 14:46:11;;;;;;;1.20;1.20;;;15.20;94.10;;;;;;5013720;28;20438;-66
2022/09/28 14:48:52;;;;;;;1.60;1.50;;;15.10;94.30;;;;;;5013889;28;20486;-67
2022/09/28 14:51:26;;;;;;;1.40;1.30;;;15.10;94.60;;;;;;5013372;28;20827;-63
2022/09/28 14:54:09;;;;;;;1.67;1.30;;;15.00;95.50;;;;;;5013344;28;20811;-66
2022/09/28 14:56:52;;;;;;;1.37;1.27;;;15.10;96.00;;;;;;5013695;28;20862;-66
2022/09/28 14:59:18;;;;;;;1.13;1.10;;;15.00;96.30;;;;;;5013320;28;20493;-65
2022/09/28 15:01:52;;;;;;;2.10;1.90;;;14.90;96.30;;;;;;5013023;28;20939;-64
2022/09/28 15:04:18;;;;;;;1.37;1.37;;;14.90;96.50;;;;;;5013363;28;20971;-66
2022/09/28 15:06:49;;;;;;;0.93;0.93;;;14.90;95.90;;;;;;5014579;28;20428;-65
2022/09/28 15:09:41;;;;;;;0.90;0.90;;;14.80;95.60;;;;;;5016919;28;20491;-65
2022/09/28 15:12:11;;;;;;;1.10;0.93;;;14.80;95.50;;;;;;5014122;28;20484;-66
2022/09/28 15:14:50;;;;;;;1.03;0.73;;;14.70;95.40;;;;;;5015196;28;20400;-66
2022/09/28 15:17:21;;;;;;;0.80;0.80;;;14.60;95.50;;;;;;5013907;28;20397;-65
2022/09/28 15:20:07;;;;;;;1.20;1.20;;;14.60;95.50;;;;;;5014798;28;20406;-67
2022/09/28 15:22:33;;;;;;;0.90;0.90;;;14.50;95.60;;;;;;5013048;28;20414;-67
2022/09/28 15:25:00;;;;;;;1.30;1.20;;;14.50;96.00;;;;;;5013388;28;20415;-64
2022/09/28 15:27:34;;;;;;;0.87;0.70;;;14.40;95.40;;;;;;5013698;28;20604;-67
2022/09/28 15:30:24;;;;;;;0.80;0.77;;;14.40;95.60;;;;;;5013729;28;20406;-67
2022/09/28 15:32:55;;;;;;;0.80;0.80;;;14.40;95.60;;;;;;5013366;28;20444;-65
2022/09/28 15:35:25;;;;;;;1.03;1.03;;;14.30;95.60;;;;;;5013221;28;20436;-65
2022/09/28 15:37:51;;;;;;;1.00;1.00;;;14.30;95.20;;;;;;5013304;28;20421;-65
2022/09/28 15:40:30;;;;;;;0.90;0.70;;;14.20;95.10;;;;;;5013988;28;20753;-63
2022/09/28 15:42:56;;;;;;;2.20;1.40;;;14.20;95.30;;;;;;5016514;28;20431;-64
2022/09/28 15:45:37;;;;;;;0.90;0.90;;;14.10;94.90;;;;;;5016884;28;20437;-66
2022/09/28 15:48:29;;;;;;;1.60;1.20;;;14.00;95.10;;;;;;5016591;28;20463;-64
2022/09/28 15:51:10;;;;;;;2.93;1.43;;;14.00;95.00;;;;;;5010297;28;20418;-66
2022/09/28 15:53:49;;;;;;;1.33;1.20;;;13.90;95.50;;;;;;4982772;28;20451;-67
2022/09/28 15:56:15;;;;;;;1.43;1.33;;;13.90;96.30;;;;;;5016251;28;20439;-65
2022/09/28 15:58:41;;;;;;;3.03;1.93;;;13.90;96.30;;;;;;5016519;28;20749;-65
2022/09/28 16:01:25;;;;;;;1.07;1.07;;;13.80;96.50;;;;;;5016670;28;20170;-64
2022/09/28 16:03:51;;;;;;;1.47;1.37;;;13.70;97.70;;;;;;5015985;28;20425;-64
2022/09/28 16:06:17;;;;;;;0.80;0.80;;;13.70;97.70;;;;;;5012141;28;20433;-65
2022/09/28 16:08:47;;;;;;;1.33;0.97;;;13.70;97.30;;;;;;5015795;28;20183;-66
2022/09/28 16:11:28;;;;;;;0.93;0.93;;;13.70;97.50;;;;;;5016159;28;20238;-66
2022/09/28 16:13:56;;;;;;;0.73;0.73;;;13.70;97.60;;;;;;5016033;28;20475;-70
2022/09/28 16:16:29;;;;;;;1.00;1.00;;;13.70;97.40;;;;;;5010856;28;20433;-68
2022/09/28 16:18:59;;;;;;;1.83;1.73;;;13.60;97.80;;;;;;5015202;28;20455;-64
2022/09/28 16:21:45;;;;;;;1.63;1.53;;;13.60;97.60;;;;;;4997641;28;20935;-68
2022/09/28 16:24:27;;;;;;;6.70;2.37;;;13.50;97.90;;;;;;5015630;28;21037;-68
2022/09/28 16:27:08;;;;;;;2.40;1.57;;;13.50;98.40;;;;;;5014400;28;20437;-68
2022/09/28 16:29:40;;;;;;;1.30;1.20;;;13.40;98.80;;;;;;5014867;28;20474;-66
2022/09/28 16:32:24;;;;;;;1.40;1.33;;;13.30;99.10;;;;;;5013500;28;20472;-65
2022/09/28 16:35:12;;;;;;;2.30;1.33;;;13.30;99.40;;;;;;5015172;28;20431;-65
2022/09/28 16:37:42;;;;;;;1.60;1.10;;;13.20;99.50;;;;;;4997086;28;20951;-66
2022/09/28 16:40:08;;;;;;;1.60;1.17;;;13.10;99.50;;;;;;5015077;28;20860;-65
2022/09/28 16:42:35;;;;;;;3.77;1.50;;;13.10;99.80;;;;;;5015112;28;20424;-67
2022/09/28 16:45:03;;;;;;;4.53;1.23;;;13.00;99.80;;;;;;5015307;28;20485;-66
2022/09/28 16:47:32;;;;;;;2.93;1.20;;;12.90;99.80;;;;;;4997129;28;20533;-67
2022/09/28 16:50:05;;;;;;;2.20;1.70;;;12.80;99.90;;;;;;5014941;28;20521;-66
2022/09/28 16:55:15;;;;;;;2.37;1.90;;;12.70;99.90;;;;;;4999772;28;20445;-64
2022/09/28 16:57:48;;;;;;;1.80;1.70;;;12.60;99.90;;;;;;4997036;28;20424;-66
2022/09/28 17:00:22;;;;;;;3.70;2.20;;;12.60;99.90;;;;;;5014353;28;20402;-67
2022/09/28 17:02:49;;;;;;;2.80;2.17;;;12.50;99.90;;;;;;5014712;28;21307;-69
2022/09/28 17:05:15;;;;;;;1.70;1.60;;;12.50;99.90;;;;;;5014521;28;20458;-67
2022/09/28 17:07:43;;;;;;;3.53;1.83;;;12.50;99.90;;;;;;5014087;28;20432;-66
2022/09/28 17:10:18;;;;;;;2.00;1.90;;;12.50;99.90;;;;;;5015370;28;20411;-66
2022/09/28 17:12:44;;;;;;;1.60;1.50;;;12.50;99.90;;;;;;5013783;28;20863;-66
2022/09/28 17:15:10;;;;;;;1.50;1.40;;;12.50;99.90;;;;;;5014968;28;20426;-66
2022/09/28 17:17:37;;;;;;;1.93;1.70;;;12.50;99.90;;;;;;5014214;28;20414;-65
2022/09/28 17:20:19;;;;;;;1.13;1.07;;;12.50;99.90;;;;;;5014872;28;20770;-64
2022/09/28 17:22:45;;;;;;;4.40;2.17;;;12.40;99.90;;;;;;5014874;28;20420;-63
2022/09/28 17:25:10;;;;;;;3.10;2.80;;;12.40;99.90;;;;;;5007748;28;20448;-63
2022/09/28 17:27:44;;;;;;;5.77;3.27;;;12.30;99.90;;;;;;5009730;28;20483;-64
2022/09/28 17:30:12;;;;;;;9.00;1.70;;;12.30;99.90;;;;;;4997002;28;20658;-63
2022/09/28 17:32:43;;;;;;;1.47;1.37;;;12.20;99.90;;;;;;4996484;28;20494;-62
2022/09/28 17:35:13;;;;;;;1.80;1.70;;;12.20;99.90;;;;;;5013471;28;20833;-63
2022/09/28 17:37:39;;;;;;;1.90;1.10;;;12.10;99.90;;;;;;5009691;28;20531;-64
2022/09/28 17:40:28;;;;;;;1.20;1.10;;;12.00;99.90;;;;;;5013748;28;20427;-63